createdAt,value
2022-10-05T00:02:25.517Z,51.16
2022-10-05T00:04:56.918Z,51.21
2022-10-05T00:07:26.066Z,51.19
2022-10-05T00:09:56.875Z,51.38
2022-10-05T00:12:29.715Z,51.28
2022-10-05T00:15:02.212Z,51.24
2022-10-05T00:17:32.023Z,51.24
2022-10-05T00:20:00.238Z,51.33
2022-10-05T00:22:33.420Z,51.41
2022-10-05T00:25:04.049Z,51.41
2022-10-05T00:27:37.979Z,51.54
2022-10-05T00:30:15.609Z,51.49
2022-10-05T00:32:44.464Z,51.54
2022-10-05T00:35:14.808Z,51.55
2022-10-05T00:37:43.419Z,51.59
2022-10-05T00:40:24.807Z,51.65
2022-10-05T00:43:13.994Z,51.78
2022-10-05T00:45:47.246Z,51.81
2022-10-05T00:48:26.482Z,51.83
2022-10-05T00:51:14.457Z,51.86
2022-10-05T00:53:49.219Z,51.82
2022-10-05T00:56:36.592Z,51.98
2022-10-05T00:59:21.817Z,51.99
2022-10-05T01:01:59.056Z,52.01
2022-10-05T01:04:38.603Z,51.90
2022-10-05T01:07:19.083Z,51.98
2022-10-05T01:09:56.729Z,52.01
2022-10-05T01:12:37.050Z,52.06
2022-10-05T01:15:12.295Z,52.18
2022-10-05T01:17:46.200Z,52.15
2022-10-05T01:20:36.043Z,52.08
2022-10-05T01:24:25.718Z,52.11
2022-10-05T01:27:35.473Z,52.19
2022-10-05T01:30:09.826Z,52.19
2022-10-05T01:32:47.211Z,52.42
2022-10-05T01:35:29.994Z,52.50
2022-10-05T01:38:13.643Z,52.44
2022-10-05T01:40:52.962Z,52.44
2022-10-05T01:43:31.912Z,52.43
2022-10-05T01:46:08.992Z,52.44
2022-10-05T01:48:49.675Z,52.38
2022-10-05T01:51:28.261Z,52.60
2022-10-05T01:54:06.608Z,52.58
2022-10-05T01:56:44.738Z,52.50
2022-10-05T01:59:26.663Z,52.45
2022-10-05T02:02:03.327Z,52.49
2022-10-05T02:05:01.089Z,52.54
2022-10-05T02:07:30.962Z,52.64
2022-10-05T02:10:04.730Z,52.63
2022-10-05T02:12:38.870Z,52.60
2022-10-05T02:15:15.767Z,52.62
2022-10-05T02:17:48.500Z,52.71
2022-10-05T02:20:22.093Z,52.60
2022-10-05T02:22:54.618Z,52.60
2022-10-05T02:25:29.020Z,52.68
2022-10-05T02:28:02.426Z,52.61
2022-10-05T02:30:36.411Z,52.64
2022-10-05T02:33:09.706Z,52.62
2022-10-05T02:35:38.343Z,52.65
2022-10-05T02:38:15.835Z,52.69
2022-10-05T02:40:55.964Z,52.68
2022-10-05T02:43:40.541Z,52.62
2022-10-05T02:46:23.137Z,52.63
2022-10-05T02:49:06.742Z,52.73
2022-10-05T02:51:46.461Z,52.70
2022-10-05T02:54:30.621Z,52.77
2022-10-05T02:57:05.083Z,52.82
2022-10-05T02:59:39.895Z,52.91
2022-10-05T03:02:18.617Z,52.90
2022-10-05T03:04:59.598Z,52.95
2022-10-05T03:07:34.642Z,52.92
2022-10-05T03:10:10.029Z,52.93
2022-10-05T03:12:50.948Z,52.95
2022-10-05T03:16:05.740Z,52.93
2022-10-05T03:18:48.410Z,52.85
2022-10-05T03:21:35.122Z,52.92
2022-10-05T03:24:22.800Z,53.08
2022-10-05T03:26:59.218Z,53.05
2022-10-05T03:29:38.287Z,53.11
2022-10-05T03:32:19.798Z,53.17
2022-10-05T03:34:56.734Z,53.10
2022-10-05T03:37:34.924Z,53.03
2022-10-05T03:40:11.238Z,53.10
2022-10-05T03:42:54.413Z,53.11
2022-10-05T03:45:29.763Z,53.24
2022-10-05T03:48:05.842Z,53.01
2022-10-05T03:50:46.988Z,53.00
2022-10-05T03:53:20.740Z,53.07
2022-10-05T03:55:55.583Z,52.98
2022-10-05T03:58:30.675Z,53.04
2022-10-05T04:01:03.078Z,53.05
2022-10-05T04:03:35.818Z,53.10
2022-10-05T04:06:12.513Z,53.04
2022-10-05T04:08:48.087Z,52.97
2022-10-05T04:11:22.586Z,52.98
2022-10-05T04:13:56.380Z,53.09
2022-10-05T04:16:28.820Z,53.03
2022-10-05T04:19:03.312Z,53.07
2022-10-05T04:21:39.219Z,52.93
2022-10-05T04:24:15.912Z,53.07
2022-10-05T04:26:50.782Z,52.94
2022-10-05T04:29:31.950Z,53.01
2022-10-05T04:32:23.215Z,53.01
2022-10-05T04:35:05.485Z,53.11
2022-10-05T04:37:48.082Z,53.09
2022-10-05T04:40:35.424Z,53.19
2022-10-05T04:43:10.961Z,53.35
2022-10-05T04:45:59.552Z,53.41
2022-10-05T04:48:49.432Z,53.45
2022-10-05T04:51:34.791Z,53.37
2022-10-05T04:54:16.970Z,53.35
2022-10-05T04:56:50.821Z,53.40
2022-10-05T04:59:46.130Z,53.35
2022-10-05T05:02:25.563Z,53.46
2022-10-05T05:05:22.438Z,53.45
2022-10-05T05:08:02.179Z,53.58
2022-10-05T05:10:58.483Z,53.56
2022-10-05T05:13:51.717Z,53.52
2022-10-05T05:16:30.250Z,53.55
2022-10-05T05:19:16.655Z,53.64
2022-10-05T05:21:55.501Z,53.66
2022-10-05T05:24:37.330Z,53.67
2022-10-05T05:27:33.219Z,53.54
2022-10-05T05:30:07.792Z,53.67
2022-10-05T05:32:45.932Z,53.72
2022-10-05T05:36:13.243Z,53.74
2022-10-05T05:38:48.660Z,53.85
2022-10-05T05:41:28.333Z,53.91
2022-10-05T05:44:09.636Z,53.94
2022-10-05T05:47:02.297Z,53.81
2022-10-05T05:49:43.035Z,54.12
2022-10-05T05:52:19.459Z,54.04
2022-10-05T05:54:56.104Z,54.08
2022-10-05T05:57:30.584Z,54.18
2022-10-05T06:00:07.467Z,54.19
2022-10-05T06:02:45.685Z,54.21
2022-10-05T06:05:30.114Z,54.35
2022-10-05T06:08:02.804Z,54.51
2022-10-05T06:10:41.400Z,54.50
2022-10-05T06:13:19.247Z,54.66
2022-10-05T06:15:54.455Z,54.72
2022-10-05T06:18:24.804Z,54.76
2022-10-05T06:20:59.170Z,55.09
2022-10-05T06:23:36.720Z,55.17
2022-10-05T06:26:19.199Z,55.33
2022-10-05T06:28:53.702Z,55.52
2022-10-05T06:31:43.134Z,55.51
2022-10-05T06:34:28.449Z,55.73
2022-10-05T06:37:02.897Z,55.92
2022-10-05T06:39:55.448Z,56.20
2022-10-05T06:43:29.874Z,56.25
2022-10-05T06:46:08.676Z,56.50
2022-10-05T06:49:02.800Z,56.67
2022-10-05T06:51:39.913Z,56.90
2022-10-05T06:54:24.217Z,57.32
2022-10-05T06:57:00.971Z,57.32
2022-10-05T06:59:37.487Z,57.58
2022-10-05T07:02:18.918Z,57.81
2022-10-05T07:05:06.167Z,58.07
2022-10-05T07:07:44.005Z,58.46
2022-10-05T07:10:26.103Z,58.61
2022-10-05T07:13:20.900Z,58.66
2022-10-05T07:16:00.216Z,58.70
2022-10-05T07:19:03.150Z,58.72
2022-10-05T07:21:42.045Z,59.06
2022-10-05T07:24:27.317Z,58.90
2022-10-05T07:27:05.486Z,58.91
2022-10-05T07:29:40.823Z,58.82
2022-10-05T07:32:25.497Z,58.60
2022-10-05T07:35:05.151Z,58.28
2022-10-05T07:37:55.380Z,58.12
2022-10-05T07:40:29.878Z,57.90
2022-10-05T07:43:08.835Z,57.60
2022-10-05T07:45:46.854Z,57.14
2022-10-05T07:48:21.635Z,56.92
2022-10-05T07:51:01.239Z,56.59
2022-10-05T07:53:38.516Z,56.51
2022-10-05T07:56:16.021Z,56.14
2022-10-05T07:58:48.317Z,56.17
2022-10-05T08:01:24.606Z,56.09
2022-10-05T08:03:57.506Z,56.04
2022-10-05T08:06:45.056Z,55.70
2022-10-05T08:09:31.415Z,55.18
2022-10-05T08:12:23.977Z,54.98
2022-10-05T08:14:58.033Z,55.08
2022-10-05T08:17:39.310Z,55.06
2022-10-05T08:20:35.028Z,55.02
2022-10-05T08:23:17.433Z,54.93
2022-10-05T08:26:08.019Z,54.57
2022-10-05T08:28:40.393Z,54.43
2022-10-05T08:31:18.120Z,54.07
2022-10-05T08:33:58.651Z,53.70
2022-10-05T08:36:49.235Z,53.48
2022-10-05T08:39:23.025Z,53.20
2022-10-05T08:42:40.072Z,53.25
2022-10-05T08:45:51.592Z,52.99
2022-10-05T08:48:37.556Z,52.72
2022-10-05T08:51:55.260Z,52.76
2022-10-05T08:54:41.319Z,52.24
2022-10-05T08:57:47.509Z,51.42
2022-10-05T09:00:20.127Z,51.24
2022-10-05T09:03:34.656Z,50.84
2022-10-05T09:06:25.369Z,50.64
2022-10-05T09:09:24.532Z,50.48
2022-10-05T09:12:23.177Z,50.33
2022-10-05T09:15:24.833Z,50.39
2022-10-05T09:18:44.441Z,49.88
2022-10-05T09:21:26.372Z,49.76
2022-10-05T09:24:24.060Z,49.36
2022-10-05T09:27:05.010Z,48.96
2022-10-05T09:30:15.257Z,48.92
2022-10-05T09:33:32.765Z,48.32
2022-10-05T09:36:35.390Z,47.50
2022-10-05T09:39:54.962Z,47.59
2022-10-05T09:43:11.489Z,47.80
2022-10-05T09:46:23.860Z,47.41
2022-10-05T09:49:21.210Z,47.09
2022-10-05T09:52:50.982Z,47.10
2022-10-05T09:55:50.141Z,46.41
2022-10-05T09:58:48.527Z,45.93
2022-10-05T10:01:47.077Z,45.48
2022-10-05T10:05:05.645Z,45.29
2022-10-05T10:08:05.708Z,45.04
2022-10-05T10:11:03.404Z,45.14
2022-10-05T10:14:04.006Z,44.69
2022-10-05T10:16:53.669Z,44.53
2022-10-05T10:19:47.798Z,44.31
2022-10-05T10:22:55.663Z,43.84
2022-10-05T10:26:25.444Z,43.74
2022-10-05T10:29:42.880Z,42.39
2022-10-05T10:33:17.555Z,41.99
2022-10-05T10:35:55.950Z,40.28
2022-10-05T10:38:34.435Z,39.21
2022-10-05T10:42:05.683Z,39.23
2022-10-05T10:45:04.794Z,39.69
2022-10-05T10:47:47.259Z,38.67
2022-10-05T10:51:14.892Z,39.74
2022-10-05T10:54:28.692Z,39.49
2022-10-05T10:57:05.055Z,38.74
2022-10-05T11:00:15.678Z,38.18
2022-10-05T11:03:25.062Z,38.04
2022-10-05T11:06:34.549Z,38.14
2022-10-05T11:09:41.162Z,38.30
2022-10-05T11:13:05.879Z,38.05
2022-10-05T11:16:37.149Z,38.38
2022-10-05T11:20:03.110Z,38.06
2022-10-05T11:23:39.081Z,37.56
2022-10-05T11:26:43.447Z,37.29
2022-10-05T11:30:01.960Z,36.35
2022-10-05T11:33:27.336Z,37.22
2022-10-05T11:37:05.482Z,37.35
2022-10-05T11:39:44.507Z,36.94
2022-10-05T11:43:05.473Z,36.87
2022-10-05T11:45:54.937Z,37.68
2022-10-05T11:48:55.556Z,37.10
2022-10-05T11:51:40.736Z,37.22
2022-10-05T11:55:09.772Z,37.35
2022-10-05T11:57:44.192Z,37.09
2022-10-05T12:00:19.939Z,37.39
2022-10-05T12:03:45.912Z,37.50
2022-10-05T12:06:46.863Z,36.73
2022-10-05T12:09:39.781Z,36.84
2022-10-05T12:12:18.555Z,36.98
2022-10-05T12:14:59.764Z,37.28
2022-10-05T12:17:35.910Z,37.56
2022-10-05T12:20:18.047Z,37.90
2022-10-05T12:22:53.244Z,37.75
2022-10-05T12:25:28.780Z,37.43
2022-10-05T12:28:04.887Z,37.59
2022-10-05T12:30:55.757Z,37.18
2022-10-05T12:33:31.651Z,37.34
2022-10-05T12:36:06.783Z,37.70
2022-10-05T12:38:42.643Z,37.21
2022-10-05T12:41:21.353Z,37.04
2022-10-05T12:44:06.053Z,37.34
2022-10-05T12:46:44.633Z,37.80
2022-10-05T12:49:45.447Z,38.12
2022-10-05T12:52:31.965Z,37.99
2022-10-05T12:55:11.697Z,39.26
2022-10-05T12:57:51.293Z,39.38
2022-10-05T13:00:23.141Z,38.17
2022-10-05T13:02:58.295Z,37.56
2022-10-05T13:05:33.788Z,37.69
2022-10-05T13:08:18.956Z,38.00
2022-10-05T13:10:53.492Z,37.72
2022-10-05T13:13:40.695Z,38.59
2022-10-05T13:16:24.297Z,38.48
2022-10-05T13:19:07.860Z,38.54
2022-10-05T13:21:57.048Z,38.66
2022-10-05T13:24:31.689Z,39.26
2022-10-05T13:27:09.179Z,39.67
2022-10-05T13:29:42.339Z,39.27
2022-10-05T13:32:19.244Z,39.53
2022-10-05T13:34:55.386Z,40.06
2022-10-05T13:37:34.639Z,39.23
2022-10-05T13:40:18.694Z,39.10
2022-10-05T13:42:55.752Z,39.15
2022-10-05T13:45:29.859Z,39.35
2022-10-05T13:48:16.092Z,39.04
2022-10-05T13:50:49.484Z,39.18
2022-10-05T13:53:26.559Z,39.77
2022-10-05T13:56:00.812Z,39.71
2022-10-05T13:58:40.065Z,39.41
2022-10-05T14:01:16.904Z,39.57
2022-10-05T14:04:07.411Z,39.44
2022-10-05T14:06:38.864Z,39.62
2022-10-05T14:09:14.975Z,39.65
2022-10-05T14:11:52.134Z,40.51
2022-10-05T14:14:28.416Z,40.09
2022-10-05T14:16:59.109Z,40.56
2022-10-05T14:19:32.847Z,40.52
2022-10-05T14:22:03.908Z,40.46
2022-10-05T14:24:50.210Z,40.89
2022-10-05T14:27:25.308Z,40.73
2022-10-05T14:30:02.288Z,40.48
2022-10-05T14:32:34.434Z,41.62
2022-10-05T14:35:15.655Z,41.37
2022-10-05T14:37:56.349Z,41.70
2022-10-05T14:40:42.727Z,41.96
2022-10-05T14:43:21.793Z,41.97
2022-10-05T14:46:00.723Z,41.82
2022-10-05T14:48:39.421Z,42.23
2022-10-05T14:51:12.713Z,42.02
2022-10-05T14:53:44.579Z,42.06
2022-10-05T14:56:38.655Z,42.13
2022-10-05T14:59:32.523Z,41.88
2022-10-05T15:02:21.164Z,41.69
2022-10-05T15:05:01.418Z,41.77
2022-10-05T15:07:36.147Z,41.48
2022-10-05T15:10:37.481Z,41.68
2022-10-05T15:13:16.651Z,41.64
2022-10-05T15:15:52.002Z,41.98
2022-10-05T15:18:37.363Z,42.28
2022-10-05T15:21:33.610Z,42.44
2022-10-05T15:24:06.385Z,42.92
2022-10-05T15:26:47.117Z,43.21
2022-10-05T15:29:41.926Z,43.19
2022-10-05T15:32:22.801Z,43.25
2022-10-05T15:35:11.997Z,43.55
2022-10-05T15:37:44.928Z,43.79
2022-10-05T15:40:24.170Z,44.12
2022-10-05T15:42:55.609Z,44.16
2022-10-05T15:45:32.365Z,44.33
2022-10-05T15:48:04.705Z,44.18
2022-10-05T15:50:46.717Z,44.05
2022-10-05T15:53:22.631Z,44.35
2022-10-05T15:55:56.791Z,44.42
2022-10-05T15:58:46.550Z,44.56
2022-10-05T16:01:20.640Z,44.75
2022-10-05T16:03:53.809Z,44.79
2022-10-05T16:06:56.830Z,44.56
2022-10-05T16:09:45.601Z,44.68
2022-10-05T16:12:34.629Z,44.83
2022-10-05T16:15:20.223Z,44.75
2022-10-05T16:18:32.238Z,44.88
2022-10-05T16:21:12.163Z,45.21
2022-10-05T16:23:53.972Z,45.17
2022-10-05T16:26:33.675Z,45.26
2022-10-05T16:29:07.063Z,45.47
2022-10-05T16:31:47.050Z,45.88
2022-10-05T16:34:32.703Z,45.87
2022-10-05T16:37:12.291Z,46.10
2022-10-05T16:39:56.849Z,46.21
2022-10-05T16:42:46.328Z,46.40
2022-10-05T16:45:30.979Z,46.62
2022-10-05T16:48:07.572Z,46.72
2022-10-05T16:50:49.646Z,46.62
2022-10-05T16:53:24.039Z,46.81
2022-10-05T16:55:58.731Z,46.92
2022-10-05T16:58:40.600Z,46.79
2022-10-05T17:01:24.839Z,47.06
2022-10-05T17:04:13.381Z,47.28
2022-10-05T17:06:58.049Z,47.09
2022-10-05T17:09:59.413Z,47.42
2022-10-05T17:12:55.908Z,47.20
2022-10-05T17:15:55.562Z,47.62
2022-10-05T17:18:49.023Z,47.48
2022-10-05T17:21:23.848Z,47.39
2022-10-05T17:23:58.473Z,47.65
2022-10-05T17:26:56.814Z,47.77
2022-10-05T17:29:42.963Z,47.40
2022-10-05T17:32:33.473Z,47.29
2022-10-05T17:35:19.188Z,47.66
2022-10-05T17:38:14.508Z,47.46
2022-10-05T17:41:19.689Z,47.41
2022-10-05T17:44:28.381Z,47.75
2022-10-05T17:47:00.389Z,48.23
2022-10-05T17:50:09.819Z,48.21
2022-10-05T17:53:00.003Z,48.55
2022-10-05T17:55:47.915Z,48.44
2022-10-05T17:59:01.730Z,48.25
2022-10-05T18:01:33.893Z,48.64
2022-10-05T18:04:39.693Z,48.75
2022-10-05T18:07:27.710Z,48.92
2022-10-05T18:10:21.527Z,49.24
2022-10-05T18:12:52.648Z,49.17
2022-10-05T18:15:48.422Z,49.26
2022-10-05T18:18:58.874Z,48.93
2022-10-05T18:21:38.011Z,48.79
2022-10-05T18:24:56.009Z,48.95
2022-10-05T18:28:03.878Z,49.02
2022-10-05T18:30:39.906Z,49.15
2022-10-05T18:33:54.480Z,48.94
2022-10-05T18:36:55.440Z,49.26
2022-10-05T18:39:48.796Z,49.16
2022-10-05T18:42:25.289Z,49.70
2022-10-05T18:44:58.755Z,49.73
2022-10-05T18:47:37.951Z,49.52
2022-10-05T18:50:27.410Z,49.68
2022-10-05T18:53:12.847Z,50.23
2022-10-05T18:55:46.940Z,50.23
2022-10-05T18:58:23.210Z,50.39
2022-10-05T19:01:33.212Z,50.16
2022-10-05T19:04:16.376Z,50.42
2022-10-05T19:06:58.127Z,50.08
2022-10-05T19:09:49.097Z,50.21
2022-10-05T19:12:30.414Z,50.25
2022-10-05T19:15:08.581Z,50.18
2022-10-05T19:18:04.477Z,50.31
2022-10-05T19:20:39.966Z,50.75
2022-10-05T19:23:27.133Z,50.63
2022-10-05T19:26:09.019Z,50.69
2022-10-05T19:28:48.023Z,50.94
2022-10-05T19:31:31.764Z,50.81
2022-10-05T19:34:21.849Z,50.76
2022-10-05T19:37:08.060Z,50.84
2022-10-05T19:39:47.087Z,50.84
2022-10-05T19:42:50.811Z,50.82
2022-10-05T19:45:24.636Z,50.52
2022-10-05T19:48:07.436Z,51.12
2022-10-05T19:50:38.457Z,51.10
2022-10-05T19:53:14.404Z,50.92
2022-10-05T19:55:45.800Z,50.53
2022-10-05T19:58:26.030Z,50.59
2022-10-05T20:00:58.175Z,50.77
2022-10-05T20:03:29.381Z,51.08
2022-10-05T20:05:59.614Z,51.08
2022-10-05T20:08:31.951Z,50.79
2022-10-05T20:11:12.339Z,50.75
2022-10-05T20:13:44.544Z,50.73
2022-10-05T20:16:47.273Z,50.93
2022-10-05T20:19:48.503Z,50.63
2022-10-05T20:22:34.564Z,50.68
2022-10-05T20:25:06.793Z,50.67
2022-10-05T20:27:49.650Z,50.63
2022-10-05T20:30:21.916Z,51.03
2022-10-05T20:32:51.140Z,50.95
2022-10-05T20:35:22.416Z,50.89
2022-10-05T20:37:51.035Z,50.88
2022-10-05T20:40:21.288Z,50.76
2022-10-05T20:42:50.381Z,50.73
2022-10-05T20:45:20.059Z,50.71
2022-10-05T20:47:48.401Z,50.64
2022-10-05T20:50:17.102Z,50.67
2022-10-05T20:52:45.487Z,50.75
2022-10-05T20:55:13.952Z,50.68
2022-10-05T20:57:42.647Z,50.79
2022-10-05T21:00:13.040Z,50.63
2022-10-05T21:02:57.577Z,50.73
2022-10-05T21:05:26.121Z,50.79
2022-10-05T21:07:54.499Z,50.89
2022-10-05T21:10:22.803Z,50.92
2022-10-05T21:12:51.443Z,50.85
2022-10-05T21:15:23.385Z,50.80
2022-10-05T21:17:53.161Z,50.82
2022-10-05T21:20:21.513Z,50.75
2022-10-05T21:22:49.863Z,50.70
2022-10-05T21:25:18.234Z,50.71
2022-10-05T21:27:48.693Z,50.62
2022-10-05T21:30:17.297Z,50.57
2022-10-05T21:32:45.650Z,50.64
2022-10-05T21:35:15.628Z,50.66
2022-10-05T21:37:43.979Z,50.74
2022-10-05T21:40:12.639Z,50.78
2022-10-05T21:42:40.980Z,50.87
2022-10-05T21:45:11.105Z,50.96
2022-10-05T21:47:39.471Z,50.88
2022-10-05T21:50:09.516Z,50.85
2022-10-05T21:52:39.285Z,50.86
2022-10-05T21:55:09.016Z,50.92
2022-10-05T21:57:37.749Z,50.95
2022-10-05T22:00:09.334Z,50.91
2022-10-05T22:02:37.965Z,50.92
2022-10-05T22:05:07.068Z,50.89
2022-10-05T22:07:35.601Z,50.99
2022-10-05T22:10:06.363Z,50.80
2022-10-05T22:12:35.140Z,50.82
2022-10-05T22:15:04.925Z,50.76
2022-10-05T22:17:33.481Z,50.88
2022-10-05T22:20:02.309Z,50.83
2022-10-05T22:22:31.394Z,50.88
2022-10-05T22:25:00.183Z,50.84
2022-10-05T22:27:30.701Z,50.89
2022-10-05T22:29:59.551Z,50.90
2022-10-05T22:32:27.921Z,50.95
2022-10-05T22:34:56.216Z,51.04
2022-10-05T22:37:24.705Z,51.18
2022-10-05T22:39:55.176Z,51.16
2022-10-05T22:42:23.437Z,51.04
2022-10-05T22:44:53.093Z,50.97
2022-10-05T22:47:21.289Z,51.07
2022-10-05T22:49:49.524Z,51.13
2022-10-05T22:52:17.999Z,51.26
2022-10-05T22:54:46.247Z,51.28
2022-10-05T22:57:14.615Z,51.23
2022-10-05T22:59:42.892Z,51.24
2022-10-05T23:02:13.991Z,51.31
2022-10-05T23:04:42.403Z,51.38
2022-10-05T23:07:10.629Z,51.60
2022-10-05T23:09:38.873Z,51.46
2022-10-05T23:12:07.543Z,51.57
2022-10-05T23:14:35.855Z,51.36
2022-10-05T23:17:04.258Z,51.52
2022-10-05T23:19:33.996Z,51.46
2022-10-05T23:22:02.258Z,51.43
2022-10-05T23:24:30.523Z,51.40
2022-10-05T23:26:58.799Z,51.41
2022-10-05T23:29:28.670Z,51.46
2022-10-05T23:31:56.968Z,51.28
2022-10-05T23:34:25.711Z,51.25
2022-10-05T23:36:55.384Z,51.37
2022-10-05T23:39:23.824Z,51.46
2022-10-05T23:41:52.065Z,51.30
2022-10-05T23:44:20.302Z,51.23
2022-10-05T23:46:48.571Z,51.42
2022-10-05T23:49:16.799Z,51.21
2022-10-05T23:51:45.449Z,51.41
2022-10-05T23:54:15.169Z,51.44
2022-10-05T23:56:43.752Z,51.52
2022-10-05T23:59:11.982Z,51.53
